sensor_id;sensor_type;location;lat;lon;timestamp;pressure;altitude;pressure_sealevel;temperature;humidity
86480;BME280;77130;49.212;9.056;2024-03-08T18:28:05;98143.00;;;20.36;36.09
86480;BME280;77130;49.212;9.056;2024-03-08T18:30:31;98128.13;;;20.22;36.23
86480;BME280;77130;49.212;9.056;2024-03-08T18:32:57;98130.00;;;20.21;36.53
86480;BME280;77130;49.212;9.056;2024-03-08T18:35:23;98133.16;;;20.30;40.76
86480;BME280;77130;49.212;9.056;2024-03-08T18:37:49;98123.84;;;20.38;36.57
86480;BME280;77130;49.212;9.056;2024-03-08T18:50:51;98087.63;;;21.41;34.86
86480;BME280;77130;49.212;9.056;2024-03-08T18:53:18;98091.78;;;21.49;34.19
86480;BME280;77130;49.212;9.056;2024-03-08T18:55:43;98089.66;;;21.51;34.08
86480;BME280;77130;49.212;9.056;2024-03-08T18:58:11;98095.16;;;21.56;33.97
86480;BME280;77130;49.212;9.056;2024-03-08T19:00:37;98088.94;;;21.55;35.82
86480;BME280;77130;49.212;9.056;2024-03-08T19:03:03;98095.53;;;21.14;36.00
86480;BME280;77130;49.212;9.056;2024-03-08T19:05:36;98100.22;;;21.02;35.10
86480;BME280;77130;49.212;9.056;2024-03-08T19:08:02;98113.50;;;20.75;35.64
86480;BME280;77130;49.212;9.056;2024-03-08T19:10:34;98116.97;;;20.70;35.98
86480;BME280;77130;49.212;9.056;2024-03-08T19:13:00;98124.22;;;20.70;36.00
86480;BME280;77130;49.212;9.056;2024-03-08T19:15:27;98129.63;;;20.70;36.48
86480;BME280;77130;49.212;9.056;2024-03-08T19:17:53;98128.81;;;20.69;36.42
86480;BME280;77130;49.212;9.056;2024-03-08T19:20:23;98129.63;;;20.70;35.96
86480;BME280;77130;49.212;9.056;2024-03-08T19:22:50;98124.47;;;20.68;36.14
86480;BME280;77130;49.212;9.056;2024-03-08T19:25:20;98129.06;;;20.68;36.37
86480;BME280;77130;49.212;9.056;2024-03-08T19:27:46;98120.94;;;20.68;36.44
86480;BME280;77130;49.212;9.056;2024-03-08T19:30:12;98116.34;;;20.68;35.91
86480;BME280;77130;49.212;9.056;2024-03-08T19:32:41;98110.13;;;20.68;36.56
86480;BME280;77130;49.212;9.056;2024-03-08T19:35:08;98114.97;;;20.66;35.80
86480;BME280;77130;49.212;9.056;2024-03-08T19:49:55;98127.34;;;22.08;37.90
86480;BME280;77130;49.212;9.056;2024-03-08T19:57:59;98138.69;;;21.04;37.27
86480;BME280;77130;49.212;9.056;2024-03-08T20:00:27;98133.41;;;20.97;36.59
86480;BME280;77130;49.212;9.056;2024-03-08T20:02:56;98137.66;;;20.93;36.47
86480;BME280;77130;49.212;9.056;2024-03-08T20:05:23;98135.97;;;20.75;36.95
86480;BME280;77130;49.212;9.056;2024-03-08T20:07:53;98131.06;;;20.72;37.25
86480;BME280;77130;49.212;9.056;2024-03-08T20:10:24;98128.34;;;20.72;36.95
86480;BME280;77130;49.212;9.056;2024-03-08T20:12:51;98129.34;;;20.83;37.29
86480;BME280;77130;49.212;9.056;2024-03-08T20:48:58;98111.53;;;22.43;34.53
86480;BME280;77130;49.212;9.056;2024-03-08T20:51:27;98107.63;;;22.12;35.20
86480;BME280;77130;49.212;9.056;2024-03-08T20:53:53;98109.38;;;21.85;35.88
86480;BME280;77130;49.212;9.056;2024-03-08T20:56:20;98101.69;;;21.77;36.13
86480;BME280;77130;49.212;9.056;2024-03-08T22:58:58;98066.75;;;25.66;27.95
86480;BME280;77130;49.212;9.056;2024-03-08T23:01:24;98074.91;;;24.74;29.28
86480;BME280;77130;49.212;9.056;2024-03-08T23:06:58;98044.19;;;19.53;25.79
86480;BME280;77130;49.212;9.056;2024-03-08T23:09:26;98049.00;;;15.70;28.85
86480;BME280;77130;49.212;9.056;2024-03-08T23:11:51;98057.56;;;12.81;33.62
86480;BME280;77130;49.212;9.056;2024-03-08T23:14:17;98059.88;;;10.79;37.46
86480;BME280;77130;49.212;9.056;2024-03-08T23:16:43;98054.31;;;9.41;40.39
86480;BME280;77130;49.212;9.056;2024-03-08T23:19:12;98055.13;;;8.38;43.24
86480;BME280;77130;49.212;9.056;2024-03-08T23:21:39;98053.91;;;7.65;44.85
86480;BME280;77130;49.212;9.056;2024-03-08T23:24:05;98051.19;;;7.15;46.64
86480;BME280;77130;49.212;9.056;2024-03-08T23:26:31;98047.81;;;6.79;48.73
86480;BME280;77130;49.212;9.056;2024-03-08T23:28:57;98047.63;;;6.54;49.22
86480;BME280;77130;49.212;9.056;2024-03-08T23:31:25;98037.19;;;6.35;49.89
86480;BME280;77130;49.212;9.056;2024-03-08T23:33:53;98044.53;;;6.23;50.82
86480;BME280;77130;49.212;9.056;2024-03-08T23:36:19;98051.03;;;6.11;51.13
86480;BME280;77130;49.212;9.056;2024-03-08T23:38:47;98046.50;;;6.03;51.52
86480;BME280;77130;49.212;9.056;2024-03-08T23:41:15;98050.56;;;5.98;52.32
86480;BME280;77130;49.212;9.056;2024-03-08T23:43:43;98052.84;;;5.93;52.77
86480;BME280;77130;49.212;9.056;2024-03-08T23:46:09;98067.13;;;5.90;52.31
86480;BME280;77130;49.212;9.056;2024-03-08T23:48:37;98063.81;;;5.88;52.64
86480;BME280;77130;49.212;9.056;2024-03-08T23:51:03;98066.44;;;5.88;52.40
86480;BME280;77130;49.212;9.056;2024-03-08T23:53:32;98072.72;;;5.87;53.22
86480;BME280;77130;49.212;9.056;2024-03-08T23:55:58;98073.00;;;5.84;53.42
86480;BME280;77130;49.212;9.056;2024-03-08T23:58:24;98066.19;;;5.81;53.41
